Time;durP1;ratioP1;P1;durP2;ratioP2;P2;SDS_P1;SDS_P2;PMS_P1;PMS_P2;Temp;Humidity;BMP_temperature;BMP_pressure;BME280_temperature;BME280_humidity;BME280_pressure;Samples;Min_cycle;Max_cycle;Signal;HPM_P1;HPM_P2
2021/03/07 00:01:33;;;;;;;12.10;6.55;;;2.30;99.90;;;;;;5094827;28;20040;-54
2021/03/07 00:03:59;;;;;;;13.82;7.03;;;2.30;99.90;;;;;;5094878;28;20067;-53
2021/03/07 00:06:24;;;;;;;12.05;6.40;;;2.30;99.90;;;;;;5094951;28;20039;-53
2021/03/07 00:08:50;;;;;;;13.05;5.78;;;2.40;99.90;;;;;;5094873;28;20075;-53
2021/03/07 00:11:16;;;;;;;9.90;6.03;;;2.40;99.90;;;;;;5094734;28;20043;-55
2021/03/07 00:13:42;;;;;;;11.27;5.35;;;2.40;99.90;;;;;;5094974;28;20048;-55
2021/03/07 00:16:08;;;;;;;10.15;5.95;;;2.40;99.90;;;;;;5094941;28;20531;-53
2021/03/07 00:18:34;;;;;;;13.48;6.07;;;2.40;99.90;;;;;;5094645;28;20397;-55
2021/03/07 00:20:59;;;;;;;11.98;6.10;;;2.50;99.90;;;;;;5094632;28;20070;-54
2021/03/07 00:23:25;;;;;;;11.90;5.70;;;2.50;99.90;;;;;;5094590;28;20035;-54
2021/03/07 00:25:51;;;;;;;8.95;5.65;;;2.50;99.90;;;;;;5094611;28;20119;-53
2021/03/07 00:28:16;;;;;;;11.85;5.57;;;2.50;99.90;;;;;;5094395;28;20075;-54
2021/03/07 00:30:42;;;;;;;8.73;4.65;;;2.50;99.90;;;;;;5094559;28;20040;-55
2021/03/07 00:33:08;;;;;;;12.65;5.82;;;2.50;99.90;;;;;;5094374;28;20060;-55
2021/03/07 00:35:33;;;;;;;7.43;4.72;;;2.50;99.90;;;;;;5094606;28;20113;-55
2021/03/07 00:37:59;;;;;;;11.55;4.95;;;2.50;99.90;;;;;;5094271;28;20479;-55
2021/03/07 00:40:25;;;;;;;9.20;4.22;;;2.50;99.90;;;;;;5094231;28;20044;-54
2021/03/07 00:42:50;;;;;;;7.05;4.47;;;2.50;99.90;;;;;;5093998;28;20432;-55
2021/03/07 00:45:18;;;;;;;7.95;4.40;;;2.50;99.90;;;;;;5094098;28;20036;-55
2021/03/07 00:47:44;;;;;;;7.93;3.83;;;2.50;99.90;;;;;;5094172;28;20459;-54
2021/03/07 00:50:32;;;;;;;10.80;4.07;;;2.60;99.90;;;;;;5076087;28;20047;-55
2021/03/07 00:52:57;;;;;;;6.22;4.30;;;2.60;99.90;;;;;;5094256;28;20526;-55
2021/03/07 00:55:25;;;;;;;9.75;3.95;;;2.60;99.90;;;;;;5093770;28;20044;-55
2021/03/07 00:57:50;;;;;;;7.82;3.40;;;2.60;99.90;;;;;;5093928;28;20071;-55
2021/03/07 01:00:28;;;;;;;4.72;3.35;;;2.60;99.90;;;;;;5075357;28;20082;-53
2021/03/07 01:02:54;;;;;;;8.27;3.40;;;2.70;99.90;;;;;;5093685;28;20080;-55
2021/03/07 01:05:21;;;;;;;6.38;3.40;;;2.70;99.90;;;;;;5093876;28;20135;-55
2021/03/07 01:07:46;;;;;;;6.20;3.40;;;2.70;99.90;;;;;;5076105;28;20055;-54
2021/03/07 01:10:37;;;;;;;7.50;3.25;;;2.80;99.90;;;;;;5094191;28;20159;-55
2021/03/07 01:13:05;;;;;;;8.73;3.50;;;2.80;99.90;;;;;;5011511;28;20049;-53
2021/03/07 01:15:32;;;;;;;8.90;3.53;;;2.80;99.90;;;;;;5011438;28;20053;-55
2021/03/07 01:17:59;;;;;;;7.60;3.22;;;2.80;99.90;;;;;;5011676;28;20503;-54
2021/03/07 01:20:25;;;;;;;6.82;3.05;;;2.80;99.90;;;;;;5011414;28;20073;-54
2021/03/07 01:22:51;;;;;;;6.55;3.67;;;2.80;99.90;;;;;;5011514;28;20042;-54
2021/03/07 01:25:32;;;;;;;9.75;3.17;;;2.80;99.90;;;;;;5011326;28;20053;-55
2021/03/07 01:27:59;;;;;;;7.22;3.40;;;2.90;99.90;;;;;;5011347;28;20450;-55
2021/03/07 01:30:27;;;;;;;5.43;3.15;;;2.90;99.90;;;;;;5011148;28;20053;-54
2021/03/07 01:32:53;;;;;;;5.82;3.67;;;2.80;99.90;;;;;;5010988;28;20484;-54
2021/03/07 01:35:20;;;;;;;5.95;3.42;;;2.90;99.90;;;;;;5011207;28;20141;-54
2021/03/07 01:37:46;;;;;;;6.80;3.20;;;2.90;99.90;;;;;;5011235;28;20104;-53
2021/03/07 01:40:15;;;;;;;7.65;2.33;;;2.80;99.90;;;;;;5011183;28;20042;-54
2021/03/07 01:42:45;;;;;;;;;;;2.80;99.90;;;;;;5011316;28;20052;-55
2021/03/07 01:45:11;;;;;;;4.07;2.33;;;2.90;99.90;;;;;;5010943;28;20446;-52
2021/03/07 01:47:42;;;;;;;5.30;2.30;;;3.00;99.90;;;;;;5010963;28;20073;-54
2021/03/07 01:50:08;;;;;;;6.70;2.58;;;3.00;99.90;;;;;;5056520;28;20400;-55
2021/03/07 01:52:33;;;;;;;3.55;2.58;;;2.90;99.90;;;;;;5093292;28;20499;-55
2021/03/07 01:54:59;;;;;;;7.35;2.53;;;2.70;99.90;;;;;;5092970;28;20039;-55
2021/03/07 01:57:26;;;;;;;3.90;2.60;;;2.70;99.90;;;;;;5092707;28;20054;-54
2021/03/07 01:59:53;;;;;;;5.55;2.60;;;2.80;99.90;;;;;;5092756;28;20036;-55
2021/03/07 02:02:19;;;;;;;6.25;2.58;;;2.80;99.90;;;;;;5092789;28;20051;-55
2021/03/07 02:04:45;;;;;;;4.97;2.70;;;2.90;99.90;;;;;;5092720;28;20435;-53
2021/03/07 02:07:10;;;;;;;4.65;2.47;;;2.90;99.90;;;;;;5092278;28;20048;-55
2021/03/07 02:09:37;;;;;;;5.55;2.67;;;2.90;99.90;;;;;;5092460;28;20410;-54
2021/03/07 02:12:03;;;;;;;9.68;2.70;;;2.80;99.90;;;;;;5092409;28;20402;-54
2021/03/07 02:14:31;;;;;;;6.00;2.83;;;2.80;99.90;;;;;;5092577;28;20040;-54
2021/03/07 02:16:59;;;;;;;4.60;3.15;;;2.80;99.90;;;;;;5092594;28;20056;-55
2021/03/07 02:19:32;;;;;;;7.47;2.90;;;2.80;99.90;;;;;;5092280;28;20040;-55
2021/03/07 02:21:59;;;;;;;4.63;2.75;;;2.80;99.90;;;;;;5092821;28;20089;-54
2021/03/07 02:24:25;;;;;;;4.32;2.55;;;2.80;99.90;;;;;;5092407;28;20534;-55
2021/03/07 02:26:51;;;;;;;5.47;3.15;;;2.70;99.90;;;;;;5092858;28;20127;-54
2021/03/07 02:29:19;;;;;;;6.28;3.10;;;2.70;99.90;;;;;;5092242;28;20446;-53
2021/03/07 02:31:50;;;;;;;4.97;3.28;;;2.70;99.90;;;;;;5092462;28;20495;-54
2021/03/07 02:34:40;;;;;;;6.07;3.65;;;2.80;99.90;;;;;;5092093;28;20042;-54
2021/03/07 02:37:12;;;;;;;4.75;3.28;;;2.70;99.90;;;;;;5091905;28;20135;-54
2021/03/07 02:39:39;;;;;;;5.40;3.65;;;2.70;99.90;;;;;;5092246;28;20043;-54
2021/03/07 02:42:09;;;;;;;7.30;3.10;;;2.70;99.90;;;;;;5092206;28;20123;-54
2021/03/07 02:44:38;;;;;;;6.30;3.40;;;2.70;99.90;;;;;;5091963;28;20074;-55
2021/03/07 02:47:05;;;;;;;8.65;3.45;;;2.70;99.90;;;;;;5074039;28;20044;-52
2021/03/07 02:49:33;;;;;;;6.63;2.83;;;2.70;99.90;;;;;;5091986;28;20044;-54
2021/03/07 02:52:02;;;;;;;7.72;3.17;;;2.70;99.90;;;;;;5091883;28;20036;-54
2021/03/07 02:54:28;;;;;;;5.70;3.60;;;2.70;99.90;;;;;;5092062;28;20118;-54
2021/03/07 02:56:56;;;;;;;5.43;3.15;;;2.70;99.90;;;;;;5091665;28;20062;-54
2021/03/07 02:59:25;;;;;;;8.40;3.30;;;2.60;99.90;;;;;;5092090;28;20470;-54
2021/03/07 03:02:00;;;;;;;5.97;2.83;;;2.60;99.90;;;;;;5091889;28;20465;-53
2021/03/07 03:04:27;;;;;;;8.77;3.58;;;2.60;99.90;;;;;;5092128;28;20046;-54
2021/03/07 03:06:54;;;;;;;11.57;3.42;;;2.60;99.90;;;;;;5091855;28;20050;-54
2021/03/07 03:09:21;;;;;;;4.55;3.10;;;2.70;99.90;;;;;;5091744;28;20524;-53
2021/03/07 03:11:51;;;;;;;5.57;2.85;;;2.60;99.90;;;;;;5091781;28;20044;-54
2021/03/07 03:14:17;;;;;;;4.70;2.88;;;2.60;99.90;;;;;;5091738;28;20043;-53
2021/03/07 03:16:50;;;;;;;9.90;2.97;;;2.60;99.90;;;;;;5091615;28;20404;-54
2021/03/07 03:19:18;;;;;;;7.38;2.40;;;2.50;99.90;;;;;;5091912;28;20052;-55
2021/03/07 03:21:45;;;;;;;8.15;2.90;;;2.50;99.90;;;;;;5095892;28;20044;-55
2021/03/07 03:24:12;;;;;;;4.88;3.10;;;2.60;99.90;;;;;;5095774;28;20522;-54
2021/03/07 03:26:38;;;;;;;5.00;2.40;;;2.50;99.90;;;;;;5095918;28;20032;-54
2021/03/07 03:29:05;;;;;;;4.55;2.40;;;2.50;99.90;;;;;;5095581;28;20044;-55
2021/03/07 03:31:32;;;;;;;8.18;2.90;;;2.50;99.90;;;;;;5095761;28;20055;-55
2021/03/07 03:33:59;;;;;;;5.88;2.45;;;2.50;99.90;;;;;;5095729;28;20059;-54
2021/03/07 03:36:25;;;;;;;9.77;2.45;;;2.60;99.90;;;;;;5095564;28;20047;-55
2021/03/07 03:38:54;;;;;;;6.03;2.75;;;2.50;99.90;;;;;;5095386;28;20036;-54
2021/03/07 03:41:22;;;;;;;6.13;3.00;;;2.60;99.90;;;;;;5095457;28;20047;-53
2021/03/07 03:43:51;;;;;;;5.43;3.03;;;2.60;99.90;;;;;;5095473;28;20051;-55
2021/03/07 03:46:18;;;;;;;;;;;2.60;99.90;;;;;;5095955;28;20040;-54
2021/03/07 03:48:49;;;;;;;4.47;1.88;;;2.70;99.90;;;;;;5095349;28;19965;-53
2021/03/07 03:51:17;;;;;;;6.97;2.10;;;2.70;99.90;;;;;;5095430;28;20096;-54
2021/03/07 03:53:43;;;;;;;5.07;1.98;;;2.60;99.90;;;;;;5077183;28;20100;-54
2021/03/07 03:56:10;;;;;;;3.90;1.85;;;2.60;99.90;;;;;;5094955;28;20043;-53
2021/03/07 03:58:41;;;;;;;4.38;2.22;;;2.60;99.90;;;;;;5095279;28;20044;-54
2021/03/07 04:01:08;;;;;;;4.60;1.95;;;2.60;99.90;;;;;;5095103;28;20048;-54
2021/03/07 04:03:35;;;;;;;3.60;1.90;;;2.60;99.90;;;;;;5095258;28;20123;-53
2021/03/07 04:06:01;;;;;;;2.42;1.95;;;2.60;99.90;;;;;;5095076;28;20036;-55
2021/03/07 04:08:27;;;;;;;6.43;2.42;;;2.60;99.90;;;;;;5094800;28;20573;-55
2021/03/07 04:10:55;;;;;;;9.02;1.92;;;2.60;99.90;;;;;;5094825;28;20095;-56
2021/03/07 04:13:26;;;;;;;2.83;2.22;;;2.60;99.90;;;;;;5094860;28;20043;-54
2021/03/07 04:15:53;;;;;;;7.45;2.45;;;2.60;99.90;;;;;;5094992;28;20040;-55
2021/03/07 04:18:23;;;;;;;3.20;2.13;;;2.60;99.90;;;;;;5094595;28;20044;-55
2021/03/07 04:20:50;;;;;;;2.47;1.90;;;2.50;99.90;;;;;;5094767;28;20040;-54
2021/03/07 04:23:16;;;;;;;6.15;2.13;;;2.60;99.90;;;;;;5095108;28;20110;-54
2021/03/07 04:25:42;;;;;;;4.30;1.88;;;2.70;99.90;;;;;;5094570;28;20424;-54
2021/03/07 04:28:09;;;;;;;8.35;3.58;;;2.70;99.90;;;;;;5094647;28;20047;-53
2021/03/07 04:30:36;;;;;;;1.98;1.77;;;2.70;99.90;;;;;;5093890;28;20101;-55
2021/03/07 04:33:03;;;;;;;2.25;1.90;;;2.70;99.90;;;;;;5094358;28;20044;-54
2021/03/07 04:35:33;;;;;;;4.65;1.63;;;2.80;99.90;;;;;;5094453;28;20044;-54
2021/03/07 04:38:00;;;;;;;1.70;1.60;;;2.70;99.90;;;;;;5094054;28;20044;-55
2021/03/07 04:40:27;;;;;;;2.83;2.15;;;2.70;99.90;;;;;;5094527;28;20055;-55
2021/03/07 04:42:53;;;;;;;2.75;1.85;;;2.70;99.90;;;;;;5094304;28;20044;-54
2021/03/07 04:45:20;;;;;;;4.88;2.03;;;2.70;99.90;;;;;;5094337;28;20055;-53
2021/03/07 04:47:46;;;;;;;3.35;1.85;;;2.70;99.90;;;;;;5094269;28;20128;-53
2021/03/07 04:50:13;;;;;;;6.15;2.03;;;2.80;99.90;;;;;;5094140;28;20130;-55
2021/03/07 04:52:40;;;;;;;3.00;1.67;;;2.70;99.90;;;;;;5094141;28;20047;-54
2021/03/07 04:55:06;;;;;;;3.72;1.73;;;2.80;99.90;;;;;;5094262;28;20044;-54
2021/03/07 04:57:32;;;;;;;4.90;1.85;;;2.80;99.90;;;;;;5093896;28;20040;-54
2021/03/07 04:59:59;;;;;;;3.35;1.80;;;2.90;99.90;;;;;;5094104;28;20036;-54
2021/03/07 05:02:24;;;;;;;3.58;2.33;;;2.80;99.90;;;;;;5093861;28;20040;-54
2021/03/07 05:04:50;;;;;;;6.38;2.00;;;2.80;99.90;;;;;;5093767;28;20115;-53
2021/03/07 05:07:16;;;;;;;3.58;1.98;;;2.80;99.90;;;;;;5093818;28;20043;-54
2021/03/07 05:09:41;;;;;;;4.63;1.88;;;2.80;99.90;;;;;;5093823;28;20044;-53
2021/03/07 05:12:07;;;;;;;6.63;2.58;;;2.90;99.90;;;;;;5093912;28;20480;-55
2021/03/07 05:14:33;;;;;;;2.85;2.00;;;2.80;99.90;;;;;;5094105;28;20074;-55
2021/03/07 05:17:00;;;;;;;6.60;1.83;;;2.80;99.90;;;;;;5093630;28;20122;-54
2021/03/07 05:19:26;;;;;;;6.53;2.40;;;2.80;99.90;;;;;;5093660;28;20055;-54
2021/03/07 05:21:52;;;;;;;6.93;2.20;;;2.80;99.90;;;;;;5093907;28;20059;-54
2021/03/07 05:24:17;;;;;;;3.58;1.90;;;2.80;99.90;;;;;;5093583;28;20398;-52
2021/03/07 05:26:45;;;;;;;4.45;1.92;;;2.80;99.90;;;;;;5093481;28;20048;-54
2021/03/07 05:29:10;;;;;;;4.18;1.95;;;2.80;99.90;;;;;;5093359;28;20040;-54
2021/03/07 05:31:36;;;;;;;2.30;1.92;;;2.80;99.90;;;;;;5093103;28;20139;-53
2021/03/07 05:34:02;;;;;;;3.22;2.25;;;2.90;99.90;;;;;;5093229;28;20044;-53
2021/03/07 05:36:28;;;;;;;3.42;2.25;;;2.90;99.90;;;;;;5093271;28;20032;-55
2021/03/07 05:38:54;;;;;;;5.72;1.80;;;2.90;99.90;;;;;;5093264;28;20048;-55
2021/03/07 05:41:20;;;;;;;3.92;2.08;;;2.90;99.90;;;;;;5093075;28;20114;-54
2021/03/07 05:43:48;;;;;;;9.65;2.83;;;2.90;99.90;;;;;;5092309;28;20119;-54
2021/03/07 05:46:15;;;;;;;3.50;2.17;;;2.90;99.90;;;;;;5093156;28;20443;-55
2021/03/07 05:48:41;;;;;;;3.22;2.42;;;2.80;99.90;;;;;;5092812;28;20410;-55
2021/03/07 05:51:12;;;;;;;4.40;2.20;;;2.80;99.90;;;;;;5093062;28;20401;-54
2021/03/07 05:53:39;;;;;;;4.30;1.90;;;2.90;99.90;;;;;;5092997;28;20215;-54
2021/03/07 05:56:05;;;;;;;3.58;2.00;;;2.90;99.90;;;;;;5092927;28;20048;-55
2021/03/07 05:58:32;;;;;;;5.78;2.50;;;2.80;99.90;;;;;;5092659;28;20040;-53
2021/03/07 06:01:00;;;;;;;4.43;2.08;;;2.90;99.90;;;;;;5092774;28;20051;-53
2021/03/07 06:03:26;;;;;;;6.50;2.38;;;2.90;99.90;;;;;;5092939;28;20048;-55
2021/03/07 06:05:51;;;;;;;4.15;2.70;;;2.90;99.90;;;;;;5092755;28;20036;-54
2021/03/07 06:08:18;;;;;;;4.85;2.33;;;2.90;99.90;;;;;;5092718;28;20047;-55
2021/03/07 06:10:44;;;;;;;4.65;2.20;;;2.90;99.90;;;;;;5092601;28;20047;-55
2021/03/07 06:13:10;;;;;;;3.42;2.58;;;2.90;99.90;;;;;;5092557;28;20044;-55
2021/03/07 06:15:45;;;;;;;5.22;2.50;;;2.90;99.90;;;;;;5092467;28;20047;-54
2021/03/07 06:18:20;;;;;;;3.83;2.42;;;2.90;99.90;;;;;;5092532;28;20375;-54
2021/03/07 06:20:52;;;;;;;4.38;2.60;;;2.90;99.90;;;;;;5092434;28;20088;-54
2021/03/07 06:23:35;;;;;;;7.45;2.55;;;2.90;99.90;;;;;;5092315;28;20044;-53
2021/03/07 06:26:09;;;;;;;6.53;2.40;;;3.00;99.90;;;;;;5092439;28;20428;-53
2021/03/07 06:28:35;;;;;;;5.53;2.55;;;2.90;99.90;;;;;;5092445;28;20075;-55
2021/03/07 06:31:01;;;;;;;3.53;2.63;;;3.00;99.90;;;;;;5092332;28;20067;-53
2021/03/07 06:33:30;;;;;;;10.95;3.00;;;3.00;99.90;;;;;;5091922;28;20074;-54
2021/03/07 06:36:17;;;;;;;4.72;2.70;;;3.00;99.90;;;;;;5092320;28;20055;-55
2021/03/07 06:38:44;;;;;;;6.10;3.00;;;3.00;99.90;;;;;;5092092;28;20082;-53
2021/03/07 06:41:18;;;;;;;6.38;3.53;;;3.00;99.60;;;;;;5092173;28;20047;-54
2021/03/07 06:43:43;;;;;;;5.70;3.67;;;3.10;99.50;;;;;;5092115;28;20050;-54
2021/03/07 06:46:28;;;;;;;4.75;3.38;;;3.10;99.90;;;;;;5092363;28;20043;-54
2021/03/07 06:48:54;;;;;;;4.32;3.30;;;3.10;99.90;;;;;;5092260;28;20048;-53
2021/03/07 06:51:33;;;;;;;5.80;3.67;;;3.10;99.90;;;;;;5091955;28;20093;-54
2021/03/07 06:54:15;;;;;;;7.20;3.45;;;3.20;99.30;;;;;;5091768;28;20032;-54
2021/03/07 06:56:50;;;;;;;4.70;3.20;;;3.20;99.60;;;;;;5091941;28;20092;-55
2021/03/07 06:59:21;;;;;;;5.88;3.42;;;3.30;99.00;;;;;;5091984;28;20051;-54
2021/03/07 07:01:49;;;;;;;4.70;3.20;;;3.20;98.90;;;;;;5091849;28;20486;-55
2021/03/07 07:04:16;;;;;;;5.50;3.88;;;3.20;99.10;;;;;;5091719;28;20556;-55
2021/03/07 07:06:43;;;;;;;6.28;3.65;;;3.20;99.70;;;;;;5092040;28;20113;-54
2021/03/07 07:09:10;;;;;;;6.90;3.72;;;3.20;99.50;;;;;;5091885;28;20044;-54
2021/03/07 07:11:54;;;;;;;5.57;2.72;;;3.20;99.90;;;;;;5091813;28;20039;-54
2021/03/07 07:14:41;;;;;;;7.40;3.03;;;3.20;99.90;;;;;;5091706;28;20040;-55
2021/03/07 07:17:09;;;;;;;6.13;3.15;;;3.20;99.90;;;;;;5073981;28;20142;-53
2021/03/07 07:19:36;;;;;;;5.95;3.58;;;3.20;99.90;;;;;;5091784;28;20079;-53
2021/03/07 07:22:02;;;;;;;6.90;3.30;;;3.30;99.70;;;;;;5092187;28;20036;-55
2021/03/07 07:24:28;;;;;;;9.07;3.58;;;3.30;99.70;;;;;;5091577;28;20095;-54
2021/03/07 07:26:56;;;;;;;8.15;3.65;;;3.30;99.50;;;;;;5091533;28;20040;-55
2021/03/07 07:29:25;;;;;;;4.15;3.33;;;3.30;99.40;;;;;;5091614;28;20044;-55
2021/03/07 07:31:57;;;;;;;;;;;3.30;99.70;;;;;;5091707;28;20105;-55
2021/03/07 07:34:27;;;;;;;4.90;3.83;;;3.30;98.80;;;;;;5091610;28;19973;-54
2021/03/07 07:37:11;;;;;;;8.98;4.10;;;3.30;99.20;;;;;;5091266;28;20043;-55
2021/03/07 07:39:40;;;;;;;4.90;3.55;;;3.30;99.70;;;;;;5091664;28;20086;-55
2021/03/07 07:42:24;;;;;;;6.38;4.20;;;3.30;98.60;;;;;;5091675;28;20115;-55
2021/03/07 07:44:51;;;;;;;10.38;4.18;;;3.40;98.70;;;;;;5091524;28;20149;-55
2021/03/07 07:47:17;;;;;;;6.95;4.07;;;3.40;98.80;;;;;;5091463;28;20133;-55
2021/03/07 07:50:27;;;;;;;6.45;3.60;;;3.40;98.50;;;;;;5091267;28;20086;-54
2021/03/07 07:52:53;;;;;;;7.82;4.20;;;3.50;98.10;;;;;;5091741;28;20102;-55
2021/03/07 07:55:19;;;;;;;9.43;4.50;;;3.40;98.70;;;;;;5091419;28;20465;-55
2021/03/07 07:57:48;;;;;;;6.53;4.97;;;3.40;99.20;;;;;;5091161;28;20131;-55
2021/03/07 08:00:15;;;;;;;7.43;4.70;;;3.40;98.70;;;;;;5091471;28;20051;-55
2021/03/07 08:02:48;;;;;;;11.07;4.45;;;3.50;98.60;;;;;;5091352;28;20051;-55
2021/03/07 08:05:20;;;;;;;7.35;4.38;;;3.40;99.10;;;;;;5091437;28;20397;-55
2021/03/07 08:08:00;;;;;;;10.88;4.85;;;3.40;98.80;;;;;;5095530;28;20094;-55
2021/03/07 08:10:40;;;;;;;6.43;4.35;;;3.50;98.70;;;;;;5094973;28;20085;-55
2021/03/07 08:13:10;;;;;;;7.53;4.55;;;3.50;98.80;;;;;;5094720;28;20478;-55
2021/03/07 08:15:47;;;;;;;5.80;4.53;;;3.50;99.10;;;;;;5094744;28;20036;-55
2021/03/07 08:18:16;;;;;;;8.55;5.32;;;3.50;98.90;;;;;;5094591;28;20097;-55
2021/03/07 08:20:42;;;;;;;;;;;3.50;98.70;;;;;;5095264;28;20044;-53
2021/03/07 08:23:12;;;;;;;7.55;5.70;;;3.50;98.30;;;;;;5094752;28;19916;-55
2021/03/07 08:25:51;;;;;;;7.85;5.47;;;3.60;98.30;;;;;;5094680;28;20036;-55
2021/03/07 08:28:25;;;;;;;10.15;5.15;;;3.60;98.00;;;;;;5094657;28;20097;-55
2021/03/07 08:30:55;;;;;;;7.93;5.40;;;3.60;98.20;;;;;;5094597;28;20043;-55
2021/03/07 08:33:25;;;;;;;9.13;5.28;;;3.60;98.10;;;;;;5094391;28;20056;-55
2021/03/07 08:36:16;;;;;;;11.07;5.75;;;3.70;97.40;;;;;;5094433;28;20393;-55
2021/03/07 08:38:54;;;;;;;6.95;5.05;;;3.60;97.70;;;;;;5094246;28;20051;-55
2021/03/07 08:41:46;;;;;;;10.38;5.95;;;3.70;97.90;;;;;;5094242;28;20136;-55
2021/03/07 08:44:13;;;;;;;8.23;5.30;;;3.70;97.50;;;;;;5094093;28;20043;-55
2021/03/07 08:46:42;;;;;;;9.85;5.65;;;3.70;97.30;;;;;;5094183;28;20043;-56
2021/03/07 08:49:09;;;;;;;9.13;6.22;;;3.80;96.90;;;;;;5094007;28;20452;-55
2021/03/07 08:51:36;;;;;;;8.98;6.40;;;3.70;97.90;;;;;;5094054;28;20113;-56
2021/03/07 08:54:08;;;;;;;11.27;6.75;;;3.70;97.90;;;;;;5094127;28;20055;-55
2021/03/07 08:56:35;;;;;;;11.38;6.90;;;3.80;97.30;;;;;;5098915;28;20126;-55
2021/03/07 08:59:00;;;;;;;10.63;7.10;;;3.80;97.70;;;;;;5095451;28;20059;-55
2021/03/07 09:01:26;;;;;;;12.85;7.10;;;3.80;96.50;;;;;;5114307;28;20412;-55
2021/03/07 09:03:57;;;;;;;11.52;7.30;;;3.90;97.50;;;;;;5114234;28;20092;-55
2021/03/07 09:06:28;;;;;;;11.05;7.18;;;3.80;97.50;;;;;;5095894;28;20092;-55
2021/03/07 09:09:05;;;;;;;12.02;7.63;;;3.90;96.60;;;;;;5114149;28;20508;-55
2021/03/07 09:11:32;;;;;;;11.55;7.60;;;4.00;97.20;;;;;;5114061;28;20039;-55
2021/03/07 09:13:58;;;;;;;10.73;7.70;;;4.00;96.30;;;;;;5114217;28;20051;-55
2021/03/07 09:16:37;;;;;;;13.10;8.00;;;4.00;96.20;;;;;;5113963;28;20047;-55
2021/03/07 09:19:27;;;;;;;11.85;7.53;;;4.00;97.00;;;;;;5113921;28;20525;-55
2021/03/07 09:22:13;;;;;;;16.02;7.50;;;4.00;96.10;;;;;;5114171;28;20143;-55
2021/03/07 09:24:51;;;;;;;12.55;7.72;;;4.10;96.20;;;;;;5113898;28;20048;-55
2021/03/07 09:27:17;;;;;;;11.80;7.63;;;4.10;96.20;;;;;;5113672;28;20047;-55
2021/03/07 09:29:56;;;;;;;12.65;8.65;;;4.20;96.70;;;;;;5113662;28;20039;-55
2021/03/07 09:32:26;;;;;;;14.43;7.60;;;4.20;96.60;;;;;;5113722;28;20081;-55
2021/03/07 09:34:53;;;;;;;14.18;7.65;;;4.30;96.60;;;;;;5113776;28;20051;-55
2021/03/07 09:37:19;;;;;;;9.55;7.00;;;4.40;96.10;;;;;;5113371;28;20047;-54
2021/03/07 09:39:47;;;;;;;11.15;7.80;;;4.40;96.20;;;;;;5114081;28;20074;-54
2021/03/07 09:42:12;;;;;;;13.32;8.05;;;4.40;95.70;;;;;;5113530;28;20469;-55
2021/03/07 09:44:39;;;;;;;11.15;7.35;;;4.50;96.10;;;;;;5113224;28;20093;-55
2021/03/07 09:47:05;;;;;;;13.30;7.32;;;4.50;96.70;;;;;;5113540;28;20070;-55
2021/03/07 09:49:31;;;;;;;10.43;7.32;;;4.50;96.10;;;;;;5113537;28;20531;-56
2021/03/07 09:51:57;;;;;;;12.35;8.02;;;4.60;96.30;;;;;;5113407;28;20046;-55
2021/03/07 09:54:23;;;;;;;11.25;6.75;;;4.60;96.40;;;;;;5113208;28;20047;-55
2021/03/07 09:56:52;;;;;;;13.10;7.85;;;4.70;96.40;;;;;;5113343;28;20469;-55
2021/03/07 09:59:26;;;;;;;11.45;7.50;;;4.70;95.80;;;;;;5113215;28;20039;-55
2021/03/07 10:02:04;;;;;;;22.77;8.20;;;4.80;95.00;;;;;;5113443;28;20043;-55
2021/03/07 10:04:41;;;;;;;10.52;7.95;;;4.80;95.80;;;;;;5113016;28;20096;-55
2021/03/07 10:07:10;;;;;;;13.95;7.57;;;4.70;95.50;;;;;;5113328;28;20521;-55
2021/03/07 10:09:55;;;;;;;10.38;8.38;;;4.80;95.90;;;;;;5113061;28;20118;-54
2021/03/07 10:12:20;;;;;;;13.48;7.82;;;4.90;95.80;;;;;;5113012;28;20623;-54
2021/03/07 10:14:52;;;;;;;10.95;8.02;;;5.00;95.80;;;;;;5113144;28;20122;-53
2021/03/07 10:17:18;;;;;;;14.02;8.90;;;5.00;94.20;;;;;;5113410;28;20048;-55
2021/03/07 10:19:45;;;;;;;10.38;8.23;;;5.10;95.30;;;;;;5113001;28;20043;-55
2021/03/07 10:22:12;;;;;;;11.35;7.78;;;5.10;95.70;;;;;;5113027;28;20082;-55
2021/03/07 10:24:38;;;;;;;11.23;8.02;;;5.10;94.40;;;;;;5112992;28;20130;-56
2021/03/07 10:27:09;;;;;;;11.15;7.00;;;5.10;94.30;;;;;;5112920;28;20348;-56
2021/03/07 10:29:39;;;;;;;15.27;7.57;;;5.20;95.30;;;;;;5112024;28;20490;-56
2021/03/07 10:32:17;;;;;;;10.68;7.32;;;5.30;94.90;;;;;;5112532;28;20122;-55
2021/03/07 10:34:45;;;;;;;11.45;7.95;;;5.30;93.30;;;;;;5112828;28;20078;-55
2021/03/07 10:37:40;;;;;;;12.50;7.97;;;5.30;93.60;;;;;;5112506;28;20039;-55
2021/03/07 10:40:14;;;;;;;11.75;7.93;;;5.40;95.10;;;;;;5112430;28;20416;-55
2021/03/07 10:42:44;;;;;;;10.90;7.53;;;5.40;93.90;;;;;;5112409;28;20032;-55
2021/03/07 10:45:21;;;;;;;11.27;8.15;;;5.50;95.30;;;;;;5112374;28;20401;-56
2021/03/07 10:48:09;;;;;;;13.70;8.43;;;5.60;95.00;;;;;;5112288;28;20480;-56
2021/03/07 10:50:36;;;;;;;13.68;8.55;;;5.60;94.90;;;;;;5112276;28;20039;-55
2021/03/07 10:53:03;;;;;;;11.70;8.77;;;5.70;93.80;;;;;;5112269;28;20036;-55
2021/03/07 10:55:29;;;;;;;14.57;8.60;;;5.70;93.80;;;;;;5112634;28;20048;-56
2021/03/07 10:57:55;;;;;;;12.23;8.68;;;5.80;94.50;;;;;;5112272;28;20370;-56
2021/03/07 11:00:23;;;;;;;10.18;7.68;;;5.90;92.80;;;;;;5112352;28;20135;-56
2021/03/07 11:02:49;;;;;;;10.10;7.72;;;5.80;93.40;;;;;;5112232;28;20040;-55
2021/03/07 11:05:15;;;;;;;13.98;9.05;;;5.80;93.30;;;;;;5112095;28;20050;-55
2021/03/07 11:07:42;;;;;;;12.90;8.95;;;5.80;94.40;;;;;;5112204;28;20051;-56
2021/03/07 11:10:11;;;;;;;11.27;8.00;;;5.90;94.30;;;;;;5112354;28;20036;-56
2021/03/07 11:12:37;;;;;;;12.77;8.82;;;6.00;94.00;;;;;;5111965;28;20043;-56
2021/03/07 11:15:05;;;;;;;16.63;8.77;;;6.10;94.30;;;;;;5112214;28;20062;-56
2021/03/07 11:17:31;;;;;;;14.95;8.93;;;6.10;93.90;;;;;;5112032;28;20075;-56
2021/03/07 11:19:57;;;;;;;12.95;8.70;;;6.20;93.80;;;;;;5111972;28;20067;-56
2021/03/07 11:22:23;;;;;;;12.07;7.93;;;6.20;94.10;;;;;;5112378;28;20044;-56
2021/03/07 11:24:49;;;;;;;14.20;8.32;;;6.30;93.70;;;;;;5112231;28;20173;-56
2021/03/07 11:27:15;;;;;;;13.98;9.02;;;6.30;94.00;;;;;;5112106;28;20123;-56
2021/03/07 11:29:41;;;;;;;12.60;8.38;;;6.30;93.70;;;;;;5112021;28;20546;-56
2021/03/07 11:32:07;;;;;;;13.32;9.43;;;6.30;93.60;;;;;;5111840;28;20043;-56
2021/03/07 11:34:33;;;;;;;14.52;9.45;;;6.30;94.10;;;;;;5111578;28;20051;-56
2021/03/07 11:36:59;;;;;;;13.23;9.35;;;6.10;93.20;;;;;;5112132;28;20051;-55
2021/03/07 11:39:24;;;;;;;14.25;9.60;;;6.20;93.90;;;;;;5111933;28;20040;-56
2021/03/07 11:41:50;;;;;;;12.32;9.45;;;6.20;93.90;;;;;;5114413;28;20036;-56
2021/03/07 11:44:16;;;;;;;15.15;9.13;;;6.10;93.20;;;;;;5115808;28;20477;-55
2021/03/07 11:46:42;;;;;;;13.95;9.05;;;6.20;93.80;;;;;;5115699;28;20043;-56
2021/03/07 11:49:07;;;;;;;16.33;10.10;;;6.20;93.80;;;;;;5097450;28;20108;-56
2021/03/07 11:51:34;;;;;;;14.05;9.45;;;6.20;94.00;;;;;;5115756;28;20087;-56
2021/03/07 11:54:02;;;;;;;13.00;9.63;;;6.20;94.10;;;;;;5115998;28;20086;-55
2021/03/07 11:56:28;;;;;;;15.23;9.05;;;6.20;93.60;;;;;;5115466;28;20046;-56
2021/03/07 11:58:54;;;;;;;14.43;10.55;;;6.10;94.10;;;;;;5115375;28;20043;-56
2021/03/07 12:01:20;;;;;;;17.90;12.02;;;6.10;93.80;;;;;;5115516;28;20035;-57
2021/03/07 12:03:46;;;;;;;20.17;12.45;;;6.00;93.30;;;;;;5115306;28;20043;-56
2021/03/07 12:06:11;;;;;;;19.20;12.75;;;6.00;94.30;;;;;;5115462;28;20040;-56
2021/03/07 12:08:37;;;;;;;19.48;12.52;;;6.00;94.30;;;;;;5115270;28;20118;-56
2021/03/07 12:11:03;;;;;;;21.17;13.27;;;6.00;93.50;;;;;;5115385;28;20459;-56
2021/03/07 12:13:29;;;;;;;20.23;13.23;;;6.00;94.10;;;;;;5115340;28;20134;-56
2021/03/07 12:15:54;;;;;;;19.90;13.07;;;6.00;94.30;;;;;;5115301;28;20070;-56
2021/03/07 12:18:20;;;;;;;19.17;13.57;;;6.00;94.20;;;;;;5115093;28;20116;-56
2021/03/07 12:20:46;;;;;;;19.10;12.98;;;6.00;94.50;;;;;;5115183;28;20040;-56
2021/03/07 12:23:12;;;;;;;23.30;14.73;;;6.00;94.80;;;;;;5115037;28;20521;-56
2021/03/07 12:25:37;;;;;;;23.42;14.07;;;6.00;95.10;;;;;;5115097;28;20047;-56
2021/03/07 12:28:04;;;;;;;23.77;14.50;;;5.90;95.00;;;;;;5114885;28;20081;-56
2021/03/07 12:30:30;;;;;;;19.38;13.57;;;5.90;95.10;;;;;;5114864;28;20047;-56
2021/03/07 12:32:56;;;;;;;22.30;15.15;;;5.90;95.00;;;;;;5111863;28;20059;-56
2021/03/07 12:35:21;;;;;;;22.42;14.57;;;5.90;95.10;;;;;;5114948;28;20071;-56
2021/03/07 12:37:47;;;;;;;24.77;15.20;;;6.00;95.40;;;;;;5114568;28;20057;-56
2021/03/07 12:40:13;;;;;;;29.33;14.95;;;5.90;95.00;;;;;;5114559;28;20059;-56
2021/03/07 12:42:39;;;;;;;25.48;15.43;;;5.90;95.30;;;;;;5114641;28;20036;-55
2021/03/07 12:45:05;;;;;;;26.55;14.93;;;5.90;95.70;;;;;;5097946;28;20119;-55
2021/03/07 12:47:31;;;;;;;21.70;14.60;;;6.00;95.80;;;;;;5094080;28;20036;-56
2021/03/07 12:49:57;;;;;;;27.67;15.63;;;5.90;95.30;;;;;;5094244;28;20093;-56
2021/03/07 12:52:23;;;;;;;24.65;15.68;;;5.90;95.60;;;;;;5093675;28;20067;-55
2021/03/07 12:54:49;;;;;;;23.73;15.25;;;5.90;95.80;;;;;;5094029;28;20048;-56
2021/03/07 12:57:14;;;;;;;26.95;16.23;;;5.90;96.20;;;;;;5093916;28;20051;-55
2021/03/07 12:59:40;;;;;;;26.67;16.63;;;6.00;97.10;;;;;;5094231;28;20075;-55
2021/03/07 13:02:06;;;;;;;29.95;17.75;;;6.10;97.30;;;;;;5093885;28;20036;-56